Time;durP1;ratioP1;P1;durP2;ratioP2;P2;SDS_P1;SDS_P2;PMS_P1;PMS_P2;Temp;Humidity;BMP_temperature;BMP_pressure;BME280_temperature;BME280_humidity;BME280_pressure;Samples;Min_cycle;Max_cycle;Signal;HPM_P1;HPM_P2
2022/06/24 00:00:16;;;;;;;4.45;3.83;;;14.60;99.90;;;;;;4919908;29;20118;-78
2022/06/24 00:02:47;;;;;;;5.07;4.00;;;14.60;99.90;;;;;;4919923;29;20032;-78
2022/06/24 00:05:13;;;;;;;7.22;3.75;;;14.50;99.90;;;;;;4936780;29;20082;-78
2022/06/24 00:07:48;;;;;;;5.22;4.50;;;14.50;99.90;;;;;;4936800;29;20036;-78
2022/06/24 00:10:17;;;;;;;5.32;3.80;;;14.50;99.90;;;;;;4936850;29;20095;-78
2022/06/24 00:12:44;;;;;;;17.48;5.00;;;14.50;99.90;;;;;;4936840;29;20030;-78
2022/06/24 00:15:10;;;;;;;4.88;3.58;;;14.50;99.90;;;;;;4936820;29;20035;-78
2022/06/24 00:17:36;;;;;;;4.90;4.20;;;14.50;99.90;;;;;;4919702;29;20039;-78
2022/06/24 00:20:05;;;;;;;4.47;3.78;;;14.50;99.90;;;;;;4937003;29;20031;-78
2022/06/24 00:22:39;;;;;;;5.60;3.83;;;14.50;99.90;;;;;;4936719;29;20032;-78
2022/06/24 00:25:17;;;;;;;4.05;3.65;;;14.50;99.90;;;;;;4936729;29;20091;-78
2022/06/24 00:27:57;;;;;;;4.43;3.90;;;14.60;99.90;;;;;;4936840;29;20138;-78
2022/06/24 00:30:23;;;;;;;5.07;3.97;;;14.50;99.90;;;;;;4919628;29;20535;-79
2022/06/24 00:32:48;;;;;;;4.47;3.50;;;14.50;99.90;;;;;;4919655;29;20095;-79
2022/06/24 00:35:16;;;;;;;4.85;3.92;;;14.50;99.90;;;;;;4919870;29;20491;-78
2022/06/24 00:37:44;;;;;;;4.97;3.90;;;14.50;99.90;;;;;;4919555;29;20035;-78
2022/06/24 00:40:09;;;;;;;5.15;3.88;;;14.50;99.90;;;;;;4936576;29;20035;-78
2022/06/24 00:42:40;;;;;;;5.18;4.68;;;14.40;99.90;;;;;;4936627;29;20035;-79
2022/06/24 00:45:09;;;;;;;4.18;3.78;;;14.40;99.90;;;;;;4936728;29;20051;-78
2022/06/24 00:47:37;;;;;;;5.30;4.75;;;14.40;99.90;;;;;;4936595;29;20107;-79
2022/06/24 00:50:14;;;;;;;6.47;4.20;;;14.40;99.90;;;;;;4936463;29;20060;-79
2022/06/24 00:52:40;;;;;;;4.50;4.10;;;14.40;99.90;;;;;;4936713;29;20417;-79
2022/06/24 00:55:07;;;;;;;5.43;3.80;;;14.30;99.90;;;;;;4936112;29;20031;-79
2022/06/24 00:57:36;;;;;;;4.88;3.97;;;14.30;99.90;;;;;;4936449;29;20040;-79
2022/06/24 01:00:05;;;;;;;5.55;4.38;;;14.30;99.90;;;;;;4936196;29;20484;-79
2022/06/24 01:02:32;;;;;;;4.65;4.25;;;14.30;99.90;;;;;;4936670;29;20040;-79
2022/06/24 01:05:08;;;;;;;5.45;4.28;;;14.30;99.90;;;;;;4936775;29;20376;-79
2022/06/24 01:07:41;;;;;;;5.68;4.38;;;14.30;99.90;;;;;;4936433;29;20050;-79
2022/06/24 01:10:09;;;;;;;5.30;4.30;;;14.30;99.90;;;;;;4940574;29;20047;-79
2022/06/24 01:12:36;;;;;;;4.60;4.20;;;14.30;99.90;;;;;;4940279;29;20479;-79
2022/06/24 01:15:03;;;;;;;4.93;4.13;;;14.30;99.90;;;;;;4922534;29;20035;-79
2022/06/24 01:17:29;;;;;;;6.80;4.43;;;14.30;99.90;;;;;;4923459;29;20031;-79
2022/06/24 01:19:55;;;;;;;6.53;4.50;;;14.30;99.90;;;;;;4940127;29;20380;-79
2022/06/24 01:22:21;;;;;;;6.22;4.25;;;14.20;99.90;;;;;;4938689;29;20032;-79
2022/06/24 01:24:47;;;;;;;6.30;4.65;;;14.20;99.90;;;;;;4939745;29;20043;-79
2022/06/24 01:27:13;;;;;;;4.72;4.22;;;14.20;99.90;;;;;;4939652;29;20051;-79
2022/06/24 01:29:38;;;;;;;4.40;4.05;;;14.20;99.90;;;;;;4939537;29;20119;-79
2022/06/24 01:32:04;;;;;;;5.53;4.00;;;14.20;99.90;;;;;;4939725;29;20032;-79
2022/06/24 01:34:30;;;;;;;4.70;4.30;;;14.20;99.90;;;;;;4939545;29;20032;-79
2022/06/24 01:36:56;;;;;;;6.50;5.25;;;14.20;99.90;;;;;;4922408;29;20028;-79
2022/06/24 01:39:21;;;;;;;9.30;5.75;;;14.20;99.90;;;;;;4922483;29;20455;-79
2022/06/24 01:41:48;;;;;;;4.47;4.07;;;14.20;99.90;;;;;;4922393;29;20038;-79
2022/06/24 01:44:13;;;;;;;6.75;3.78;;;14.20;99.90;;;;;;4922830;29;20024;-79
2022/06/24 01:46:39;;;;;;;5.28;4.78;;;14.10;99.90;;;;;;4939149;29;20487;-79
2022/06/24 01:49:05;;;;;;;4.45;3.78;;;14.20;99.90;;;;;;4939711;29;20032;-79
2022/06/24 01:51:33;;;;;;;7.78;5.00;;;14.10;99.90;;;;;;4939608;29;20111;-79
2022/06/24 01:53:58;;;;;;;7.95;4.70;;;14.10;99.90;;;;;;4939168;29;20032;-79
2022/06/24 01:56:24;;;;;;;10.00;4.57;;;14.10;99.90;;;;;;4939174;29;20090;-79
2022/06/24 01:58:50;;;;;;;5.35;4.85;;;14.10;99.90;;;;;;4939160;29;20074;-79
2022/06/24 02:01:15;;;;;;;6.20;4.05;;;14.20;99.90;;;;;;4938838;29;20036;-79
2022/06/24 02:03:41;;;;;;;4.70;4.30;;;14.20;99.90;;;;;;4938794;29;20114;-79
2022/06/24 02:06:10;;;;;;;6.90;4.80;;;14.20;99.90;;;;;;4938717;29;20064;-79
2022/06/24 02:08:36;;;;;;;5.57;5.05;;;14.20;99.90;;;;;;4939149;29;20380;-79
2022/06/24 02:13:48;;;;;;;5.30;4.80;;;14.10;99.90;;;;;;4938897;29;20035;-79
2022/06/24 02:16:15;;;;;;;9.73;6.47;;;14.10;99.90;;;;;;4921768;29;20083;-79
2022/06/24 02:18:41;;;;;;;6.75;5.28;;;14.10;99.90;;;;;;4921384;29;20054;-79
2022/06/24 02:21:07;;;;;;;7.68;5.28;;;14.20;99.90;;;;;;4921068;29;20456;-79
2022/06/24 02:23:33;;;;;;;9.18;6.75;;;14.20;99.90;;;;;;4938965;29;20042;-79
2022/06/24 02:25:58;;;;;;;6.25;5.40;;;14.20;99.90;;;;;;4938390;29;20475;-79
2022/06/24 02:28:25;;;;;;;6.57;5.38;;;14.20;99.90;;;;;;4938502;29;20103;-79
2022/06/24 02:30:58;;;;;;;6.07;5.07;;;14.20;99.90;;;;;;4938661;29;20083;-79
2022/06/24 02:33:23;;;;;;;8.10;5.68;;;14.20;99.90;;;;;;4938707;29;20034;-79
2022/06/24 02:35:49;;;;;;;9.20;6.28;;;14.20;99.90;;;;;;4921519;29;20032;-79
2022/06/24 02:38:15;;;;;;;7.78;6.30;;;14.20;99.90;;;;;;4938470;29;20135;-79
2022/06/24 02:40:49;;;;;;;7.35;5.65;;;14.20;99.90;;;;;;4921305;29;20034;-79
2022/06/24 02:43:19;;;;;;;8.07;6.40;;;14.20;99.90;;;;;;4938606;29;20083;-79
2022/06/24 02:45:46;;;;;;;7.15;6.05;;;14.20;99.90;;;;;;4938467;29;20035;-79
2022/06/24 02:48:13;;;;;;;9.40;7.35;;;14.20;99.90;;;;;;4938343;29;20027;-79
2022/06/24 02:50:44;;;;;;;13.75;7.95;;;14.20;99.90;;;;;;4937829;29;20378;-79
2022/06/24 02:53:10;;;;;;;10.35;6.30;;;14.30;99.90;;;;;;4938402;29;20103;-79
2022/06/24 02:55:36;;;;;;;7.85;7.05;;;14.30;99.90;;;;;;4938102;29;20027;-79
2022/06/24 02:58:03;;;;;;;10.52;6.53;;;14.30;99.90;;;;;;4938085;29;20515;-78
2022/06/24 03:00:28;;;;;;;8.80;7.18;;;14.40;99.90;;;;;;4937230;29;20028;-79
2022/06/24 03:02:54;;;;;;;8.27;7.20;;;14.40;99.90;;;;;;4937993;29;20032;-79
2022/06/24 03:05:20;;;;;;;8.90;7.80;;;14.50;99.90;;;;;;4938335;29;20376;-79
2022/06/24 03:07:46;;;;;;;8.93;8.02;;;14.50;99.90;;;;;;4937780;29;20111;-79
2022/06/24 03:10:11;;;;;;;11.00;8.05;;;14.60;99.90;;;;;;4937882;29;20035;-79
2022/06/24 03:12:37;;;;;;;9.40;8.15;;;14.60;99.90;;;;;;4937552;29;20086;-79
2022/06/24 03:15:03;;;;;;;9.93;8.75;;;14.70;99.90;;;;;;4937785;29;20063;-79
2022/06/24 03:17:28;;;;;;;11.90;8.65;;;14.70;99.90;;;;;;4938254;29;20452;-79
2022/06/24 03:19:54;;;;;;;9.05;7.88;;;14.80;99.90;;;;;;4920635;29;20060;-79
2022/06/24 03:22:20;;;;;;;11.45;7.85;;;14.80;99.90;;;;;;4937360;29;20059;-79
2022/06/24 03:24:45;;;;;;;10.43;8.18;;;14.80;99.90;;;;;;4937610;29;20064;-78
2022/06/24 03:27:11;;;;;;;13.50;8.73;;;14.90;99.90;;;;;;4920263;29;20527;-79
2022/06/24 03:29:37;;;;;;;11.32;8.40;;;14.90;99.90;;;;;;4937420;29;20063;-80
2022/06/24 03:32:02;;;;;;;12.93;9.10;;;14.90;99.90;;;;;;4920094;29;20122;-79
2022/06/24 03:34:28;;;;;;;12.65;9.85;;;15.00;99.90;;;;;;4920302;29;20035;-80
2022/06/24 03:36:54;;;;;;;11.02;9.70;;;15.00;99.90;;;;;;4920451;29;20360;-79
2022/06/24 03:39:19;;;;;;;10.13;8.88;;;15.00;99.90;;;;;;4920195;29;20038;-79
2022/06/24 03:41:45;;;;;;;12.70;9.90;;;15.10;99.90;;;;;;4937325;29;20495;-79
2022/06/24 03:44:11;;;;;;;11.05;8.88;;;15.20;99.90;;;;;;4937338;29;20058;-79
2022/06/24 03:46:36;;;;;;;15.43;9.20;;;15.20;99.90;;;;;;4937337;29;20035;-80
2022/06/24 03:49:02;;;;;;;9.73;8.73;;;15.30;99.90;;;;;;4936950;29;20067;-79
2022/06/24 03:51:27;;;;;;;10.85;8.95;;;15.40;99.90;;;;;;4935822;29;20465;-80
2022/06/24 03:53:53;;;;;;;10.07;8.88;;;15.40;99.90;;;;;;4937140;29;20039;-80
2022/06/24 03:56:19;;;;;;;15.50;9.18;;;15.50;99.90;;;;;;4935799;29;20380;-80
2022/06/24 03:58:44;;;;;;;13.57;9.40;;;15.60;99.90;;;;;;4937051;29;20460;-80
2022/06/24 04:01:10;;;;;;;10.00;9.00;;;15.70;99.90;;;;;;4920020;29;20036;-79
2022/06/24 04:03:36;;;;;;;12.68;9.40;;;15.80;99.90;;;;;;4936965;29;20358;-80
2022/06/24 04:06:01;;;;;;;11.50;9.48;;;15.90;99.90;;;;;;4935692;29;20030;-56
2022/06/24 04:08:27;;;;;;;11.02;9.43;;;16.00;99.90;;;;;;4936975;29;20039;-57
2022/06/24 04:10:53;;;;;;;11.65;9.80;;;16.20;99.90;;;;;;4936709;29;20070;-56
2022/06/24 04:13:18;;;;;;;15.35;10.10;;;16.30;99.90;;;;;;4936447;29;20058;-56
2022/06/24 04:15:51;;;;;;;12.70;8.73;;;16.50;99.90;;;;;;4936642;29;20031;-56
2022/06/24 04:18:16;;;;;;;9.65;8.43;;;16.60;99.90;;;;;;4936624;29;20425;-56
2022/06/24 04:20:42;;;;;;;10.15;9.05;;;16.80;99.90;;;;;;4936811;29;20039;-56
2022/06/24 04:23:07;;;;;;;9.32;8.23;;;16.90;99.90;;;;;;4936320;29;20128;-57
2022/06/24 04:25:33;;;;;;;12.57;9.25;;;17.10;99.90;;;;;;4936365;29;20525;-57
2022/06/24 04:27:59;;;;;;;10.18;7.97;;;17.20;99.90;;;;;;4936587;29;20063;-56
2022/06/24 04:30:25;;;;;;;10.80;8.63;;;17.30;99.90;;;;;;4936478;29;20465;-74
2022/06/24 04:32:51;;;;;;;8.73;7.90;;;17.40;99.90;;;;;;4936759;29;20074;-89
2022/06/24 04:35:17;;;;;;;16.63;8.93;;;17.50;99.90;;;;;;4936516;29;20453;-80
2022/06/24 04:37:42;;;;;;;12.02;9.10;;;17.60;99.90;;;;;;4936261;29;20488;-83
2022/06/24 04:40:11;;;;;;;11.05;8.32;;;17.70;99.90;;;;;;4936513;29;20464;-81
2022/06/24 04:42:37;;;;;;;12.63;9.48;;;17.80;99.90;;;;;;4936986;29;20027;-82
2022/06/24 04:45:04;;;;;;;12.85;7.95;;;17.90;99.90;;;;;;4923733;29;20126;-79
2022/06/24 04:47:30;;;;;;;9.55;8.50;;;18.00;99.90;;;;;;4923434;29;20039;-82
2022/06/24 04:49:55;;;;;;;8.95;7.65;;;18.00;99.90;;;;;;4940322;29;20036;-81
2022/06/24 04:52:21;;;;;;;13.90;9.18;;;18.10;99.90;;;;;;4923310;29;20465;-81
2022/06/24 04:54:48;;;;;;;9.20;8.30;;;18.20;99.90;;;;;;4940288;29;20035;-80
2022/06/24 04:57:14;;;;;;;11.18;8.45;;;18.30;99.90;;;;;;4940258;29;20032;-80
2022/06/24 04:59:39;;;;;;;9.70;7.63;;;18.30;99.90;;;;;;4940513;29;20032;-80
2022/06/24 05:02:05;;;;;;;8.73;7.82;;;18.40;99.90;;;;;;4940146;29;20055;-81
2022/06/24 05:04:31;;;;;;;8.77;7.85;;;18.50;99.90;;;;;;4940290;29;20465;-81
2022/06/24 05:06:56;;;;;;;8.70;7.40;;;18.50;99.90;;;;;;4940128;29;20035;-81
2022/06/24 05:09:22;;;;;;;10.40;8.18;;;18.60;99.90;;;;;;4939884;29;20047;-81
2022/06/24 05:11:50;;;;;;;12.23;8.43;;;18.70;99.90;;;;;;4939627;29;20036;-81
2022/06/24 05:14:16;;;;;;;11.68;7.80;;;18.70;99.90;;;;;;4940283;29;20020;-82
2022/06/24 05:16:42;;;;;;;11.20;8.00;;;18.80;99.90;;;;;;4923240;29;20031;-82
2022/06/24 05:19:09;;;;;;;10.00;7.50;;;18.90;99.90;;;;;;4940110;29;20035;-82
2022/06/24 05:21:35;;;;;;;11.02;8.13;;;19.00;99.90;;;;;;4939933;29;20106;-82
2022/06/24 05:24:01;;;;;;;9.02;6.50;;;19.10;99.90;;;;;;4923009;29;20387;-82
2022/06/24 05:26:27;;;;;;;9.15;7.55;;;19.20;99.90;;;;;;4939894;29;20052;-81
2022/06/24 05:28:52;;;;;;;8.55;7.38;;;19.30;99.90;;;;;;4922695;29;20035;-81
2022/06/24 05:31:18;;;;;;;10.98;7.15;;;19.40;99.90;;;;;;4939694;29;20043;-81
2022/06/24 05:33:43;;;;;;;8.35;5.80;;;19.50;99.90;;;;;;4939729;29;20516;-81
2022/06/24 05:36:09;;;;;;;8.32;5.68;;;19.60;99.90;;;;;;4922762;29;20475;-81
2022/06/24 05:38:35;;;;;;;7.43;5.75;;;19.80;99.90;;;;;;4939207;29;20031;-81
2022/06/24 05:41:02;;;;;;;5.90;5.25;;;19.90;99.90;;;;;;4939589;29;20024;-80
2022/06/24 05:43:28;;;;;;;7.00;5.35;;;20.00;99.90;;;;;;4939589;29;20046;-81
2022/06/24 05:45:54;;;;;;;6.80;5.93;;;20.20;99.90;;;;;;4922220;29;20027;-81
2022/06/24 05:48:19;;;;;;;7.82;5.50;;;20.30;99.90;;;;;;4922166;29;20461;-81
2022/06/24 05:50:45;;;;;;;8.82;5.70;;;20.40;99.90;;;;;;4938893;29;20055;-81
2022/06/24 05:55:58;;;;;;;6.63;4.40;;;20.80;99.90;;;;;;4939200;29;20444;-81
2022/06/24 05:58:27;;;;;;;7.22;4.53;;;20.90;99.90;;;;;;4939131;29;20038;-81
2022/06/24 06:00:57;;;;;;;8.73;4.45;;;21.10;99.90;;;;;;4939427;29;20039;-81
2022/06/24 06:03:26;;;;;;;6.38;5.05;;;21.50;99.90;;;;;;4938943;29;20038;-81
2022/06/24 06:05:52;;;;;;;10.15;5.35;;;21.80;99.90;;;;;;4922257;29;20035;-81
2022/06/24 06:08:19;;;;;;;7.15;4.78;;;22.00;99.90;;;;;;4921819;29;20037;-81
2022/06/24 06:10:45;;;;;;;4.68;4.28;;;22.10;99.90;;;;;;4938963;29;20052;-80
2022/06/24 06:13:12;;;;;;;6.72;4.78;;;22.00;99.90;;;;;;4938883;29;20035;-81
2022/06/24 06:15:37;;;;;;;5.13;4.57;;;21.80;99.90;;;;;;4938814;29;20024;-81
2022/06/24 06:18:03;;;;;;;8.20;4.63;;;21.80;99.90;;;;;;4921648;29;20487;-81
2022/06/24 06:20:29;;;;;;;9.55;5.25;;;21.70;99.90;;;;;;4938657;29;20119;-80
2022/06/24 06:22:55;;;;;;;6.32;5.07;;;21.70;99.90;;;;;;4938666;29;20055;-80
2022/06/24 06:25:22;;;;;;;5.32;4.80;;;21.60;99.90;;;;;;4937273;29;20103;-80
2022/06/24 06:27:49;;;;;;;6.60;4.53;;;21.60;99.90;;;;;;4939139;29;20039;-81
2022/06/24 06:30:14;;;;;;;5.78;4.30;;;21.90;99.90;;;;;;4938904;29;20059;-81
2022/06/24 06:32:40;;;;;;;5.45;4.68;;;22.40;99.90;;;;;;4938407;29;20036;-81
2022/06/24 06:35:06;;;;;;;7.80;4.40;;;23.00;99.90;;;;;;4938447;29;20052;-78
2022/06/24 06:37:32;;;;;;;7.28;4.10;;;23.50;99.90;;;;;;4938406;29;20107;-81
2022/06/24 06:39:58;;;;;;;5.82;4.22;;;24.00;99.90;;;;;;4921294;29;20032;-78
2022/06/24 06:42:23;;;;;;;4.45;4.05;;;24.40;99.90;;;;;;4939795;29;20079;-79
2022/06/24 06:44:49;;;;;;;5.07;4.20;;;24.70;99.90;;;;;;4939762;29;20023;-79
2022/06/24 06:47:15;;;;;;;7.95;3.70;;;24.80;99.90;;;;;;4939092;29;20035;-78
2022/06/24 06:49:40;;;;;;;4.60;4.20;;;25.00;99.90;;;;;;4938073;29;20042;-78
2022/06/24 06:52:06;;;;;;;7.22;4.68;;;25.10;99.90;;;;;;4938245;29;20087;-78
2022/06/24 06:54:32;;;;;;;4.45;3.78;;;25.00;99.90;;;;;;4938083;29;20027;-77
2022/06/24 06:56:57;;;;;;;4.90;3.70;;;25.30;99.90;;;;;;4921105;29;20392;-77
2022/06/24 06:59:23;;;;;;;6.35;4.07;;;25.70;99.90;;;;;;4938204;29;20039;-77
2022/06/24 07:01:49;;;;;;;8.10;3.72;;;25.80;99.90;;;;;;4937621;29;20034;-77
2022/06/24 07:04:15;;;;;;;4.57;3.63;;;26.00;99.90;;;;;;4937918;29;20035;-77
2022/06/24 07:06:41;;;;;;;3.97;3.45;;;25.90;99.90;;;;;;4937004;29;20357;-77
2022/06/24 07:09:06;;;;;;;4.38;3.75;;;26.00;99.90;;;;;;4920768;29;20027;-77
2022/06/24 07:11:32;;;;;;;6.95;3.92;;;26.40;99.90;;;;;;4937374;29;20032;-77
2022/06/24 07:13:58;;;;;;;5.20;3.35;;;26.90;99.00;;;;;;4938029;29;20083;-77
2022/06/24 07:16:24;;;;;;;5.10;3.22;;;27.30;97.30;;;;;;4937697;29;20023;-77
2022/06/24 07:18:49;;;;;;;7.38;3.03;;;27.30;95.30;;;;;;4937743;29;20036;-77
2022/06/24 07:21:15;;;;;;;5.90;3.58;;;27.10;96.20;;;;;;4937545;29;20023;-77
2022/06/24 07:23:41;;;;;;;3.88;3.00;;;26.70;95.50;;;;;;4937612;29;20532;-77
2022/06/24 07:26:07;;;;;;;7.18;3.15;;;26.90;96.50;;;;;;4920150;29;20047;-77
2022/06/24 07:28:37;;;;;;;8.13;3.30;;;27.00;94.70;;;;;;4937359;29;20039;-77
2022/06/24 07:31:17;;;;;;;3.35;3.05;;;27.20;93.90;;;;;;4920444;29;20126;-77
2022/06/24 07:33:43;;;;;;;5.82;3.38;;;27.10;94.30;;;;;;4920371;29;20538;-77
2022/06/24 07:36:09;;;;;;;3.22;2.92;;;26.90;92.90;;;;;;4920176;29;20032;-77
2022/06/24 07:38:35;;;;;;;3.28;2.90;;;26.30;94.60;;;;;;4920239;29;20067;-77
2022/06/24 07:41:01;;;;;;;6.55;2.80;;;26.30;95.50;;;;;;4937111;29;20165;-77
2022/06/24 07:43:27;;;;;;;4.05;3.10;;;26.50;95.90;;;;;;4935811;29;20380;-77
2022/06/24 07:45:53;;;;;;;3.50;2.92;;;26.70;95.20;;;;;;4936981;29;20047;-77
2022/06/24 07:48:19;;;;;;;7.05;2.88;;;26.70;94.30;;;;;;4937093;29;20035;-77
2022/06/24 07:50:45;;;;;;;3.25;2.40;;;26.30;91.20;;;;;;4919904;29;20437;-77
2022/06/24 07:53:11;;;;;;;5.18;2.33;;;26.20;87.90;;;;;;4937174;29;20036;-77
2022/06/24 07:58:21;;;;;;;2.45;2.20;;;26.20;88.10;;;;;;4936923;29;20102;-76
2022/06/24 08:00:47;;;;;;;2.15;2.03;;;26.70;88.30;;;;;;4936784;29;20429;-77
2022/06/24 08:03:12;;;;;;;7.43;2.33;;;26.80;86.20;;;;;;4919766;29;20086;-78
2022/06/24 08:05:38;;;;;;;2.20;2.10;;;27.20;83.10;;;;;;4919639;29;20035;-77
2022/06/24 08:08:04;;;;;;;4.43;2.30;;;27.70;80.20;;;;;;4937053;29;20032;-77
2022/06/24 08:10:30;;;;;;;2.38;2.00;;;28.10;75.00;;;;;;4936686;29;20532;-77
2022/06/24 08:12:55;;;;;;;3.13;1.88;;;27.70;75.50;;;;;;4936446;29;20028;-77
2022/06/24 08:15:21;;;;;;;2.75;2.38;;;28.10;76.80;;;;;;4936714;29;20031;-77
2022/06/24 08:17:48;;;;;;;2.25;2.15;;;28.00;74.30;;;;;;4934561;29;20370;-77
2022/06/24 08:20:14;;;;;;;3.80;2.20;;;27.40;75.80;;;;;;4936611;29;20024;-77
2022/06/24 08:22:40;;;;;;;1.98;1.88;;;27.30;75.90;;;;;;4935454;29;20095;-77
2022/06/24 08:25:06;;;;;;;5.15;2.47;;;27.30;76.20;;;;;;4919406;29;20028;-77
2022/06/24 08:27:32;;;;;;;2.30;2.10;;;27.00;76.20;;;;;;4934802;29;20047;-77
2022/06/24 08:29:58;;;;;;;3.97;2.25;;;27.10;77.80;;;;;;4936216;29;20099;-77
2022/06/24 08:32:23;;;;;;;3.80;2.47;;;27.20;77.00;;;;;;4936653;29;20039;-77
2022/06/24 08:34:50;;;;;;;2.35;2.15;;;27.30;75.80;;;;;;4936228;29;20028;-78
2022/06/24 08:37:15;;;;;;;3.97;2.95;;;27.50;77.20;;;;;;4919477;29;20027;-77
2022/06/24 08:39:41;;;;;;;3.38;2.53;;;27.40;77.80;;;;;;4936504;29;20461;-77
2022/06/24 08:42:12;;;;;;;3.92;3.08;;;27.20;80.20;;;;;;4919320;29;20028;-77
2022/06/24 08:44:39;;;;;;;3.50;2.50;;;26.80;81.60;;;;;;4936553;29;20028;-77
2022/06/24 08:47:05;;;;;;;7.13;2.58;;;26.70;82.90;;;;;;4936509;29;20460;-78
2022/06/24 08:49:34;;;;;;;3.20;2.60;;;27.00;84.30;;;;;;4936256;29;20100;-78
2022/06/24 08:52:00;;;;;;;;;;;27.40;83.20;;;;;;4936928;29;20059;-78
2022/06/24 08:54:30;;;;;;;2.63;2.40;;;27.70;81.60;;;;;;4919740;29;19957;-78
2022/06/24 08:56:57;;;;;;;5.25;2.55;;;27.90;79.50;;;;;;4936350;29;20028;-78
2022/06/24 08:59:23;;;;;;;6.80;2.38;;;28.40;77.20;;;;;;4936355;29;20028;-78
2022/06/24 09:01:48;;;;;;;6.30;2.97;;;28.40;77.10;;;;;;4936418;29;20031;-79
2022/06/24 09:04:14;;;;;;;3.45;2.35;;;28.50;75.70;;;;;;4936430;29;20028;-78
2022/06/24 09:06:41;;;;;;;7.57;2.30;;;28.60;75.90;;;;;;4918838;29;20063;-78
2022/06/24 09:09:08;;;;;;;2.55;2.35;;;28.10;75.20;;;;;;4936062;29;20023;-78
2022/06/24 09:11:40;;;;;;;2.35;2.13;;;27.80;76.60;;;;;;4936369;29;20039;-78
2022/06/24 09:14:07;;;;;;;4.88;2.17;;;27.60;73.40;;;;;;4919040;29;20031;-78
2022/06/24 09:16:37;;;;;;;2.38;2.17;;;27.40;74.60;;;;;;4918819;29;20082;-78
2022/06/24 09:19:05;;;;;;;2.25;2.00;;;27.10;74.30;;;;;;4936057;29;20187;-78
2022/06/24 09:21:39;;;;;;;4.35;2.10;;;27.10;73.60;;;;;;4935990;29;20028;-78
2022/06/24 09:24:06;;;;;;;3.33;2.17;;;27.10;73.10;;;;;;4919009;29;20114;-78
2022/06/24 09:26:34;;;;;;;3.60;2.13;;;27.00;74.40;;;;;;4936028;29;20059;-78
2022/06/24 09:29:01;;;;;;;4.68;1.88;;;27.10;75.00;;;;;;4919968;29;20380;-78
2022/06/24 09:31:28;;;;;;;2.38;2.00;;;27.00;75.10;;;;;;4939629;29;20059;-77
2022/06/24 09:33:55;;;;;;;3.97;1.70;;;27.50;76.20;;;;;;4922631;29;20035;-78
2022/06/24 09:36:26;;;;;;;4.45;2.30;;;28.40;71.50;;;;;;4939510;29;20036;-80
2022/06/24 09:39:03;;;;;;;2.75;2.00;;;29.00;69.00;;;;;;4922210;29;20047;-79
2022/06/24 09:41:29;;;;;;;3.60;1.90;;;29.20;67.60;;;;;;4922210;29;20035;-80
2022/06/24 09:43:58;;;;;;;2.88;2.10;;;29.90;65.10;;;;;;4939056;29;20032;-77
2022/06/24 09:46:25;;;;;;;2.28;2.03;;;29.80;64.00;;;;;;4939382;29;20034;-78
2022/06/24 09:49:00;;;;;;;2.05;1.90;;;29.10;64.90;;;;;;4939273;29;20087;-78
2022/06/24 09:51:28;;;;;;;3.55;1.88;;;28.40;66.30;;;;;;4939501;29;20074;-79
2022/06/24 09:53:55;;;;;;;3.35;1.80;;;28.70;66.30;;;;;;4921874;29;20051;-78
2022/06/24 09:56:21;;;;;;;2.47;1.52;;;28.70;66.60;;;;;;4939172;29;20032;-78
2022/06/24 10:01:34;;;;;;;2.90;1.70;;;29.30;64.20;;;;;;4938872;29;20123;-78
2022/06/24 10:04:02;;;;;;;3.38;2.00;;;29.10;63.70;;;;;;4939309;29;20027;-78
2022/06/24 10:06:29;;;;;;;5.00;2.00;;;29.30;63.40;;;;;;4938974;29;20032;-81
2022/06/24 10:08:56;;;;;;;4.05;1.88;;;29.90;63.90;;;;;;4938866;29;20114;-78
2022/06/24 10:11:25;;;;;;;2.33;1.80;;;30.00;61.30;;;;;;4938260;29;20063;-78
2022/06/24 10:13:51;;;;;;;4.75;1.55;;;29.60;62.00;;;;;;4938839;29;20031;-78
2022/06/24 10:16:17;;;;;;;2.00;1.90;;;29.40;63.10;;;;;;4922823;29;20392;-79
2022/06/24 10:18:46;;;;;;;4.63;1.70;;;29.90;62.20;;;;;;4938918;29;20091;-79
2022/06/24 10:21:12;;;;;;;3.28;1.75;;;30.30;61.20;;;;;;4921785;29;20055;-78
2022/06/24 10:23:38;;;;;;;2.88;1.60;;;30.70;58.60;;;;;;4921507;29;20039;-78
2022/06/24 10:26:26;;;;;;;2.40;1.92;;;30.50;58.90;;;;;;4938452;29;20047;-78
2022/06/24 10:29:04;;;;;;;;;;;30.20;58.40;;;;;;4938910;29;20491;-78
2022/06/24 10:31:42;;;;;;;4.38;2.10;;;30.60;58.50;;;;;;4921307;29;20283;-81
2022/06/24 10:34:22;;;;;;;2.70;1.80;;;30.50;58.00;;;;;;4921586;29;20031;-80
2022/06/24 10:37:00;;;;;;;13.20;1.85;;;30.00;58.10;;;;;;4938334;29;20474;-82
2022/06/24 10:39:28;;;;;;;3.08;1.90;;;30.40;57.50;;;;;;4938313;29;20476;-81
2022/06/24 10:42:06;;;;;;;3.72;1.88;;;30.40;57.30;;;;;;4937361;29;20028;-81
2022/06/24 10:44:38;;;;;;;3.25;1.52;;;30.10;57.00;;;;;;4921278;29;20036;-79
2022/06/24 10:47:14;;;;;;;3.20;1.58;;;30.50;57.50;;;;;;4940230;29;20039;-78
2022/06/24 10:49:52;;;;;;;3.60;2.25;;;30.70;56.30;;;;;;4921479;29;20035;-79
2022/06/24 10:52:37;;;;;;;2.60;1.92;;;30.70;56.70;;;;;;4938233;29;20031;-81
2022/06/24 10:55:17;;;;;;;1.77;1.45;;;30.80;55.70;;;;;;4921065;29;20073;-82
2022/06/24 10:57:54;;;;;;;5.35;2.10;;;30.90;55.10;;;;;;4921046;29;20035;-79
2022/06/24 11:00:20;;;;;;;3.53;1.60;;;31.10;54.60;;;;;;4937957;29;20055;-80
2022/06/24 11:02:58;;;;;;;2.75;1.75;;;30.60;55.40;;;;;;4921272;29;20066;-82
2022/06/24 11:05:36;;;;;;;2.83;1.55;;;30.70;55.90;;;;;;4937979;29;20028;-81
2022/06/24 11:08:03;;;;;;;2.05;1.48;;;31.50;54.00;;;;;;4921653;29;20042;-80
2022/06/24 11:10:32;;;;;;;1.73;1.63;;;32.10;52.60;;;;;;4937600;29;20103;-81
2022/06/24 11:12:59;;;;;;;;;;;31.60;52.90;;;;;;4937920;29;20451;-81
2022/06/24 11:15:54;;;;;;;3.05;1.95;;;31.40;52.00;;;;;;4920667;29;19906;-80
2022/06/24 11:18:34;;;;;;;2.55;1.48;;;31.10;53.80;;;;;;4920635;29;20039;-81
2022/06/24 11:21:09;;;;;;;4.63;1.60;;;31.60;51.80;;;;;;4920495;29;20091;-81
2022/06/24 11:23:37;;;;;;;4.28;1.50;;;31.90;51.10;;;;;;4920512;29;20028;-81
2022/06/24 11:26:15;;;;;;;3.20;1.80;;;32.30;50.40;;;;;;4920240;29;20111;-81
2022/06/24 11:28:42;;;;;;;1.52;1.42;;;32.10;50.00;;;;;;4921056;29;20058;-81
2022/06/24 11:31:20;;;;;;;1.85;1.75;;;32.10;50.20;;;;;;4937485;29;20468;-81
2022/06/24 11:33:49;;;;;;;2.97;1.75;;;31.50;50.50;;;;;;4920269;29;20028;-81
2022/06/24 11:36:15;;;;;;;1.50;1.30;;;31.30;51.20;;;;;;4937405;29;20032;-81
2022/06/24 11:38:54;;;;;;;2.50;1.77;;;31.60;50.80;;;;;;4937297;29;20118;-80
2022/06/24 11:41:26;;;;;;;5.05;1.60;;;32.10;50.40;;;;;;4936897;29;20028;-81
2022/06/24 11:43:53;;;;;;;2.30;1.83;;;32.40;50.00;;;;;;4920355;29;20032;-81
2022/06/24 11:46:19;;;;;;;3.42;1.80;;;32.50;49.40;;;;;;4920027;29;20087;-81
2022/06/24 11:48:45;;;;;;;4.78;2.00;;;32.10;49.70;;;;;;4919999;29;20080;-80
2022/06/24 11:51:22;;;;;;;1.70;1.60;;;31.30;50.70;;;;;;4920186;29;20071;-81
2022/06/24 11:53:58;;;;;;;8.63;2.45;;;31.30;52.00;;;;;;4920109;29;20083;-81
2022/06/24 11:56:32;;;;;;;2.28;2.08;;;31.30;52.30;;;;;;4920085;29;20476;-81
2022/06/24 11:59:05;;;;;;;5.38;2.17;;;31.30;52.10;;;;;;4937224;29;20024;-81
2022/06/24 12:01:32;;;;;;;6.97;2.50;;;31.00;52.90;;;;;;4936959;29;20115;-81
2022/06/24 12:04:05;;;;;;;4.63;2.20;;;31.50;53.10;;;;;;4936793;29;20028;-81
2022/06/24 12:06:31;;;;;;;3.20;1.77;;;31.50;52.60;;;;;;4936575;29;20027;-80
2022/06/24 12:08:58;;;;;;;2.28;1.77;;;31.70;52.40;;;;;;4919697;29;20032;-81
2022/06/24 12:11:24;;;;;;;5.13;2.20;;;32.10;52.50;;;;;;4936909;29;20128;-79
2022/06/24 12:13:59;;;;;;;1.98;1.67;;;32.20;51.40;;;;;;4936763;29;20028;-80
2022/06/24 12:16:26;;;;;;;4.57;2.13;;;31.40;52.90;;;;;;4936791;29;20033;-80
2022/06/24 12:18:53;;;;;;;3.67;2.65;;;31.30;52.90;;;;;;4919880;29;20036;-80
2022/06/24 12:21:28;;;;;;;3.65;2.05;;;32.10;52.60;;;;;;4936726;29;20023;-82
2022/06/24 12:23:54;;;;;;;2.30;2.10;;;32.70;50.90;;;;;;4936943;29;20023;-79
2022/06/24 12:26:24;;;;;;;1.80;1.60;;;32.10;51.70;;;;;;4936710;29;20058;-80
2022/06/24 12:29:00;;;;;;;3.33;2.13;;;32.20;51.80;;;;;;4919257;29;20063;-80
2022/06/24 12:31:27;;;;;;;1.75;1.65;;;32.00;51.70;;;;;;4936923;29;20039;-81
2022/06/24 12:33:54;;;;;;;5.45;2.25;;;31.40;52.50;;;;;;4936604;29;20027;-82
2022/06/24 12:36:41;;;;;;;3.50;2.00;;;30.20;55.20;;;;;;4935307;29;20031;-79
2022/06/24 12:39:09;;;;;;;3.30;2.30;;;30.60;55.90;;;;;;4936630;29;20027;-83
2022/06/24 12:42:02;;;;;;;3.83;2.07;;;31.60;54.10;;;;;;4919648;29;20491;-79
2022/06/24 12:44:41;;;;;;;3.20;2.08;;;31.60;53.10;;;;;;4932880;29;20035;-80
2022/06/24 12:52:36;;;;;;;3.50;2.20;;;31.60;52.60;;;;;;4936240;29;20039;-81
2022/06/24 12:55:04;;;;;;;4.32;2.08;;;32.00;53.50;;;;;;4919111;29;20028;-80
2022/06/24 12:57:29;;;;;;;4.93;1.90;;;31.20;54.10;;;;;;4936440;29;20034;-81
2022/06/24 12:59:55;;;;;;;4.47;1.92;;;31.30;53.80;;;;;;4936225;29;20031;-80
2022/06/24 13:02:21;;;;;;;3.33;1.83;;;31.60;54.30;;;;;;4936308;29;20035;-78
2022/06/24 13:04:47;;;;;;;5.35;2.60;;;31.80;54.00;;;;;;4938382;29;20035;-79